Alabama Port, Alabama
Current Conditions -  °F | °C
As of 7:53 AM on Friday 24 Oct 2014 (Local Time) from KBFM Reporting Station
Clear Clear  
Wind Chill: 54°   Ceiling: Unl
Heat Index: 54°   Visibility: 10mi
Dew Point: 50°   Wind: 5mph
Humidity: 86%   Direction: 330°NNW
Pressure: 30.1"   Gusts: NA
Location:  30.4032°N, 88.1801°W
Report Text: KBFM 241253Z 33004KT 10SM CLR 12/10 A3010 RMK AO2 SLP193 T01220100
Loading
Personal Weather Stations






























Interactive Weather Map
Tropical Storm Tracking
New forecast layout! Learn more

10-Day Weather Forecast

Advertisements
Track Severe Weather on mobile